Time;durP1;ratioP1;P1;durP2;ratioP2;P2;SDS_P1;SDS_P2;PMS_P1;PMS_P2;Temp;Humidity;BMP_temperature;BMP_pressure;BME280_temperature;BME280_humidity;BME280_pressure;Samples;Min_cycle;Max_cycle;Signal;HPM_P1;HPM_P2
2022/10/31 00:08:25;;;;;;;45.80;29.00;;;;;;;11.86;82.38;98927.59;422487;1296;100005;-41
2022/10/31 00:18:30;;;;;;;47.00;31.20;;;;;;;11.72;82.63;98931.74;422241;1299;108648;-41
2022/10/31 00:28:34;;;;;;;50.60;30.10;;;;;;;11.59;82.88;98934.29;422555;1295;99236;-41
2022/10/31 00:38:37;;;;;;;42.80;27.90;;;;;;;11.56;83.01;98943.13;422568;1294;111049;-41
2022/10/31 00:48:41;;;;;;;43.90;27.30;;;;;;;11.47;83.01;98947.67;422622;1286;108417;-41
2022/10/31 00:58:44;;;;;;;41.50;28.50;;;;;;;11.34;83.17;98943.38;422527;1296;99222;-41
2022/10/31 01:18:52;;;;;;;43.20;27.10;;;;;;;11.13;83.16;98945.73;422848;1296;99232;-41
2022/10/31 01:28:58;;;;;;;45.20;27.10;;;;;;;11.05;83.33;98952.80;422761;1287;112697;-41
2022/10/31 01:39:04;;;;;;;46.80;27.30;;;;;;;10.93;83.42;98952.08;422915;1287;108375;-41
2022/10/31 01:49:12;;;;;;;41.80;26.80;;;;;;;10.88;83.65;98952.25;422600;1294;99132;-41
2022/10/31 01:59:19;;;;;;;45.30;25.30;;;;;;;10.79;83.56;98950.62;422145;1296;435312;-41
2022/10/31 02:09:25;;;;;;;38.80;25.10;;;;;;;10.71;83.72;98950.20;423932;1257;99125;-40
2022/10/31 02:19:32;;;;;;;37.50;23.00;;;;;;;10.67;83.92;98956.12;422726;1294;112489;-41
2022/10/31 02:30:10;;;;;;;43.70;24.90;;;;;;;10.60;83.80;98948.86;422763;1281;108253;-41
2022/10/31 02:40:13;;;;;;;46.30;28.40;;;;;;;10.38;83.83;98954.48;422321;1295;99230;-41
2022/10/31 02:50:22;;;;;;;43.60;27.50;;;;;;;10.32;83.93;98953.73;422626;1295;106652;-41
2022/10/31 03:00:27;;;;;;;44.50;27.30;;;;;;;10.20;83.94;98957.63;422433;1295;99211;-41
2022/10/31 03:10:32;;;;;;;41.30;25.90;;;;;;;10.09;84.00;98965.16;422791;1291;111458;-41
2022/10/31 03:20:40;;;;;;;41.90;27.60;;;;;;;9.93;84.07;98967.26;422616;1288;107604;-41
2022/10/31 03:30:46;;;;;;;41.60;28.10;;;;;;;9.84;84.10;98969.69;422388;1287;99209;-41
2022/10/31 03:40:54;;;;;;;38.80;24.40;;;;;;;9.75;84.33;98978.64;422554;1295;107491;-40
2022/10/31 03:50:58;;;;;;;35.50;24.90;;;;;;;9.71;84.38;98985.17;422453;1295;99074;-41
2022/10/31 04:01:05;;;;;;;34.70;22.70;;;;;;;9.75;84.61;98989.52;422836;1294;110361;-41
2022/10/31 04:11:11;;;;;;;39.20;22.80;;;;;;;9.84;84.72;98993.55;422756;1286;107076;-40
2022/10/31 04:21:14;;;;;;;43.30;26.20;;;;;;;9.76;84.65;98995.68;422178;1295;99812;-41
2022/10/31 04:31:18;;;;;;;47.30;29.30;;;;;;;9.60;84.67;98993.73;422679;1286;107339;-40
2022/10/31 04:41:22;;;;;;;40.90;23.40;;;;;;;9.47;84.61;98989.52;422381;1286;99214;-40
2022/10/31 04:51:25;;;;;;;39.80;23.60;;;;;;;9.42;84.92;98995.75;422616;1295;111554;-40
2022/10/31 05:01:29;;;;;;;36.00;21.80;;;;;;;9.48;85.08;98996.88;422449;1295;108061;-40
2022/10/31 05:11:33;;;;;;;35.40;20.90;;;;;;;9.47;85.12;99000.98;422741;1295;99220;-41
2022/10/31 05:21:42;;;;;;;45.70;25.50;;;;;;;9.44;85.16;99000.65;422655;1295;107525;-41
2022/10/31 05:31:46;;;;;;;37.80;22.20;;;;;;;9.41;85.27;99006.20;422221;1286;98048;-41
2022/10/31 05:41:49;;;;;;;41.20;22.20;;;;;;;9.47;85.52;99013.80;422337;1295;111649;-41
2022/10/31 05:51:53;;;;;;;33.90;19.90;;;;;;;9.50;85.57;99020.56;422635;1296;108399;-42
2022/10/31 06:01:57;;;;;;;38.60;22.00;;;;;;;9.61;85.55;99018.41;422439;1295;99922;-39
2022/10/31 06:12:00;;;;;;;33.70;20.90;;;;;;;9.75;85.66;99021.20;422150;1295;107662;-40
2022/10/31 06:22:04;;;;;;;38.60;22.20;;;;;;;9.99;85.64;99027.57;422640;1292;99242;-41
2022/10/31 06:32:11;;;;;;;42.70;23.00;;;;;;;10.27;85.84;99026.61;423124;1286;112901;-41
2022/10/31 06:42:15;;;;;;;36.10;22.00;;;;;;;10.60;85.70;99036.25;423318;1272;109176;-40
2022/10/31 06:52:19;;;;;;;32.00;20.80;;;;;;;11.04;85.77;99038.23;422692;1285;99339;-41
2022/10/31 07:02:23;;;;;;;40.00;23.50;;;;;;;11.93;86.20;99039.25;422469;1296;109296;-40
2022/10/31 07:12:26;;;;;;;35.20;19.10;;;;;;;13.12;85.63;99047.34;422533;1295;98597;-40
2022/10/31 07:22:33;;;;;;;35.60;19.60;;;;;;;14.46;85.42;99051.39;422663;1292;110903;-41
2022/10/31 07:42:45;;;;;;;35.40;19.40;;;;;;;16.62;84.12;99058.34;422041;1289;99522;-40
2022/10/31 07:52:58;;;;;;;32.50;19.00;;;;;;;17.77;83.54;99058.04;422595;1289;108625;-40
2022/10/31 08:03:04;;;;;;;32.90;17.00;;;;;;;18.24;82.21;99060.74;422622;1295;98825;-40
2022/10/31 08:13:10;;;;;;;27.50;16.70;;;;;;;18.33;81.27;99064.01;422612;1284;111562;-40
2022/10/31 08:23:13;;;;;;;28.60;15.00;;;;;;;18.29;80.37;99069.74;422461;1291;108460;-39
2022/10/31 08:33:18;;;;;;;28.40;13.70;;;;;;;18.42;79.87;99082.25;422454;1289;99307;-39
2022/10/31 08:43:22;;;;;;;22.70;12.50;;;;;;;18.64;79.21;99081.60;422557;1295;109065;-41
2022/10/31 08:53:26;;;;;;;22.70;12.70;;;;;;;18.75;78.65;99082.34;422343;1289;99245;-41
2022/10/31 09:13:35;;;;;;;27.90;14.50;;;;;;;19.06;77.51;99086.16;422624;1289;107469;-40
2022/10/31 09:23:44;;;;;;;28.40;11.40;;;;;;;19.26;76.95;99088.97;422623;1295;98008;-41
2022/10/31 09:33:47;;;;;;;21.00;10.90;;;;;;;19.37;75.93;99093.95;422165;1295;107460;-40
2022/10/31 09:44:07;;;;;;;22.00;11.40;;;;;;;19.37;75.28;99099.91;422442;1289;99214;-40
2022/10/31 09:54:16;;;;;;;21.20;10.10;;;;;;;19.49;74.63;99100.61;422459;1296;111865;-40
2022/10/31 10:04:30;;;;;;;17.70;9.10;;;;;;;19.65;74.22;99102.33;422637;1296;107975;-40
2022/10/31 10:14:42;;;;;;;15.30;8.90;;;;;;;19.70;73.08;99104.13;422455;1288;99191;-40
2022/10/31 10:25:08;;;;;;;19.80;9.90;;;;;;;19.69;72.59;99099.29;422421;1293;105922;-40
2022/10/31 10:35:17;;;;;;;14.50;7.90;;;;;;;19.93;72.44;99090.77;422418;1296;99016;-40
2022/10/31 10:55:49;;;;;;;18.30;8.50;;;;;;;20.11;70.99;99082.46;422369;1291;108245;-40
2022/10/31 11:05:54;;;;;;;19.50;7.70;;;;;;;20.21;70.40;99074.10;422673;1296;99223;-40
2022/10/31 11:15:57;;;;;;;19.10;7.90;;;;;;;20.21;69.13;99078.41;422491;1295;107984;-40
2022/10/31 11:26:03;;;;;;;17.40;8.00;;;;;;;20.10;68.91;99073.61;422466;1288;99223;-40
2022/10/31 11:36:16;;;;;;;16.90;7.90;;;;;;;20.15;68.28;99070.89;422813;1277;110378;-40
2022/10/31 11:56:25;;;;;;;18.40;8.20;;;;;;;19.86;67.52;99073.80;422770;1286;99185;-40
2022/10/31 12:06:28;;;;;;;18.50;9.60;;;;;;;19.92;67.39;99064.79;422810;1285;108818;-39
2022/10/31 12:16:31;;;;;;;16.40;8.30;;;;;;;19.88;67.36;99067.02;422452;1296;98867;-40
2022/10/31 12:26:37;;;;;;;19.10;8.40;;;;;;;19.84;67.33;99061.41;422694;1285;111015;-40
2022/10/31 12:36:43;;;;;;;16.10;9.30;;;;;;;19.90;67.43;99049.63;422544;1292;108512;-39
2022/10/31 12:56:55;;;;;;;21.10;8.00;;;;;;;19.81;67.18;99036.15;422724;1292;108050;-40
2022/10/31 13:07:02;;;;;;;13.50;8.90;;;;;;;19.80;67.11;99035.73;422608;1295;99093;-40
2022/10/31 13:17:07;;;;;;;12.50;7.70;;;;;;;19.71;66.98;99041.45;422594;1292;111803;-41
2022/10/31 13:27:11;;;;;;;17.40;7.20;;;;;;;19.61;66.90;99044.18;422433;1291;107589;-40
2022/10/31 13:37:16;;;;;;;16.60;7.50;;;;;;;19.50;66.90;99042.24;422690;1286;98828;-43
2022/10/31 13:47:21;;;;;;;15.40;6.60;;;;;;;19.39;66.76;99043.64;422183;1286;108596;-41
2022/10/31 13:57:26;;;;;;;17.70;7.70;;;;;;;19.27;66.65;99044.84;422102;1289;593551;-41
2022/10/31 14:07:43;;;;;;;16.70;7.40;;;;;;;19.09;66.46;99048.09;422661;1285;112910;-41
2022/10/31 14:17:50;;;;;;;14.30;6.90;;;;;;;18.88;66.64;99045.70;422748;1283;107400;-40
2022/10/31 14:27:55;;;;;;;15.50;6.80;;;;;;;18.66;66.57;99038.96;422921;1288;118215;-40
2022/10/31 14:48:12;;;;;;;17.10;7.40;;;;;;;18.25;66.84;99024.18;422812;1294;99207;-41
2022/10/31 14:58:18;;;;;;;24.50;9.90;;;;;;;17.97;66.97;99020.46;422875;1292;111238;-41
2022/10/31 15:08:43;;;;;;;18.50;8.30;;;;;;;17.57;67.29;99017.63;422661;1296;108751;-41
2022/10/31 15:18:50;;;;;;;27.90;9.00;;;;;;;17.11;67.84;99013.23;422719;1288;98733;-40
2022/10/31 15:29:02;;;;;;;24.90;10.50;;;;;;;16.53;68.32;99016.32;422944;1289;108073;-42
2022/10/31 15:39:10;;;;;;;27.10;12.80;;;;;;;15.89;68.98;99012.64;422763;1295;99217;-41
2022/10/31 15:49:16;;;;;;;26.90;11.10;;;;;;;15.35;69.45;99019.95;421973;1295;112407;-41
2022/10/31 15:59:22;;;;;;;26.80;14.10;;;;;;;14.88;69.86;99027.83;422458;1295;107481;-41
2022/10/31 16:09:26;;;;;;;30.50;14.40;;;;;;;14.54;70.78;99028.19;422453;1289;99214;-41
2022/10/31 16:19:32;;;;;;;34.20;13.00;;;;;;;14.25;71.29;99027.89;422195;1292;107595;-41
2022/10/31 16:29:42;;;;;;;32.20;15.10;;;;;;;13.94;71.80;99027.59;422428;1295;99982;-41
2022/10/31 16:39:46;;;;;;;34.50;15.40;;;;;;;13.70;72.51;99034.15;422513;1295;112444;-41
2022/10/31 16:49:50;;;;;;;41.30;18.40;;;;;;;13.44;72.47;99035.50;422439;1285;107593;-42
2022/10/31 16:59:54;;;;;;;41.70;22.80;;;;;;;13.11;72.95;99041.56;422583;1295;99255;-40
2022/10/31 17:09:57;;;;;;;41.80;20.10;;;;;;;12.93;73.49;99050.16;422383;1289;107304;-41
2022/10/31 17:20:01;;;;;;;49.90;21.30;;;;;;;12.84;73.78;99052.42;422318;1292;98017;-41
2022/10/31 17:30:07;;;;;;;54.60;24.80;;;;;;;12.62;73.92;99062.03;422579;1288;111075;-40
2022/10/31 17:40:14;;;;;;;46.70;27.30;;;;;;;12.33;74.15;99062.16;422478;1290;109413;-39
2022/10/31 17:50:18;;;;;;;55.50;32.30;;;;;;;11.90;74.49;99059.20;422496;1295;99245;-42
2022/10/31 18:00:23;;;;;;;67.00;39.00;;;;;;;11.80;75.06;99058.00;422567;1295;109679;-41
2022/10/31 18:10:27;;;;;;;78.70;46.60;;;;;;;11.70;75.64;99056.48;422103;1296;99269;-41
2022/10/31 18:20:30;;;;;;;91.30;54.60;;;;;;;11.78;76.00;99054.75;422294;1295;112156;-41
2022/10/31 18:30:38;;;;;;;105.70;59.00;;;;;;;11.70;76.12;99055.20;422149;1281;107356;-41
2022/10/31 18:40:41;;;;;;;101.10;62.10;;;;;;;11.68;76.58;99051.23;422492;1295;99270;-40
2022/10/31 18:50:46;;;;;;;113.80;64.70;;;;;;;11.58;76.87;99040.90;422502;1295;109152;-41
2022/10/31 19:00:50;;;;;;;119.30;69.90;;;;;;;11.62;77.29;99041.86;422373;1279;99315;-41
2022/10/31 19:20:57;;;;;;;147.50;91.80;;;;;;;11.44;77.71;99024.97;422700;1295;108375;-41
2022/10/31 19:31:02;;;;;;;151.00;91.00;;;;;;;11.30;77.49;99025.03;422328;1289;99273;-41
2022/10/31 19:41:07;;;;;;;193.10;121.50;;;;;;;11.02;77.61;99020.10;422650;1295;108538;-40
2022/10/31 19:51:13;;;;;;;222.60;138.60;;;;;;;10.82;78.24;99021.27;422490;1280;99336;-40
2022/10/31 20:01:18;;;;;;;197.50;116.40;;;;;;;10.89;78.38;99018.48;422273;1295;112005;-41
2022/10/31 20:11:23;;;;;;;201.10;123.10;;;;;;;10.83;78.34;99017.84;422180;1284;108934;-40
2022/10/31 20:21:29;;;;;;;195.10;121.40;;;;;;;10.71;78.67;99013.56;422659;1289;98978;-41
2022/10/31 20:31:35;;;;;;;183.20;111.60;;;;;;;10.66;78.93;99006.17;422175;1288;106138;-41
2022/10/31 20:41:39;;;;;;;172.90;107.90;;;;;;;10.66;79.40;98999.66;422460;1295;98050;-39
2022/10/31 20:51:42;;;;;;;177.20;103.70;;;;;;;10.64;79.67;98994.13;422210;1295;112215;-41
2022/10/31 21:01:46;;;;;;;163.80;94.10;;;;;;;10.66;80.10;98983.42;422268;1286;108443;-42
2022/10/31 21:11:50;;;;;;;149.60;88.80;;;;;;;10.66;80.26;98982.36;422561;1289;99220;-40
2022/10/31 21:21:52;;;;;;;153.00;85.50;;;;;;;10.63;80.49;98972.54;422058;1289;108211;-40
2022/10/31 21:31:56;;;;;;;144.20;86.70;;;;;;;10.63;80.71;98962.08;422531;1289;99262;-41
2022/10/31 21:42:00;;;;;;;127.80;80.20;;;;;;;10.59;80.90;98946.55;422390;1295;111031;-40
2022/10/31 21:52:04;;;;;;;133.90;77.40;;;;;;;10.56;81.09;98943.30;422375;1295;107836;-40
2022/10/31 22:02:10;;;;;;;121.30;70.90;;;;;;;10.49;81.12;98938.21;422646;1295;99225;-40
2022/10/31 22:12:15;;;;;;;113.70;67.80;;;;;;;10.50;81.38;98923.04;422087;1295;108901;-41
2022/10/31 22:22:18;;;;;;;111.50;66.60;;;;;;;10.50;81.48;98917.83;422366;1289;99234;-40
2022/10/31 22:32:22;;;;;;;111.30;64.50;;;;;;;10.49;81.60;98913.41;422659;1295;110716;-40
2022/10/31 22:42:26;;;;;;;100.60;65.50;;;;;;;10.49;81.71;98907.80;422030;1295;107539;-41
2022/10/31 22:52:30;;;;;;;134.00;76.80;;;;;;;10.41;81.64;98898.41;422374;1296;99368;-40
2022/10/31 23:02:33;;;;;;;114.60;69.10;;;;;;;10.23;81.32;98897.91;422603;1287;108704;-40
2022/10/31 23:22:58;;;;;;;111.80;69.10;;;;;;;9.97;81.61;98892.73;422622;1288;111442;-40
2022/10/31 23:33:01;;;;;;;96.00;57.80;;;;;;;10.03;82.06;98885.84;422329;1288;108294;-40
2022/10/31 23:43:05;;;;;;;102.70;57.50;;;;;;;10.15;82.27;98875.66;422854;1286;98024;-40
2022/10/31 23:53:09;;;;;;;97.80;59.50;;;;;;;10.14;82.23;98872.41;422141;1294;108626;-40
